Time;durP1;ratioP1;P1;durP2;ratioP2;P2;SDS_P1;SDS_P2;PMS_P1;PMS_P2;Temp;Humidity;BMP_temperature;BMP_pressure;BME280_temperature;BME280_humidity;BME280_pressure;Samples;Min_cycle;Max_cycle;Signal;HPM_P1;HPM_P2
2022/08/29 00:00:14;;;;;;;11.77;7.03;;;16.00;99.90;;;;;;2125650;27;20420;-73
2022/08/29 00:01:17;;;;;;;13.35;7.28;;;16.00;99.90;;;;;;2125154;27;20116;-72
2022/08/29 00:02:18;;;;;;;9.25;6.85;;;16.00;99.90;;;;;;2125330;27;20046;-73
2022/08/29 00:03:19;;;;;;;11.15;6.40;;;16.00;99.90;;;;;;2125577;27;20102;-73
2022/08/29 00:04:20;;;;;;;9.05;5.78;;;16.00;99.90;;;;;;2117186;27;20131;-73
2022/08/29 00:05:27;;;;;;;9.20;5.80;;;16.00;99.90;;;;;;2118646;27;20053;-74
2022/08/29 00:06:31;;;;;;;9.13;5.50;;;16.00;99.90;;;;;;2125176;27;20089;-73
2022/08/29 00:07:35;;;;;;;9.40;5.90;;;16.00;99.90;;;;;;2122823;27;20103;-73
2022/08/29 00:08:36;;;;;;;10.05;5.80;;;16.00;99.90;;;;;;2125826;27;20100;-73
2022/08/29 00:09:46;;;;;;;8.70;5.57;;;16.10;99.90;;;;;;2118462;27;20028;-73
2022/08/29 00:10:47;;;;;;;8.80;5.47;;;16.10;99.90;;;;;;2125789;27;20029;-73
2022/08/29 00:11:49;;;;;;;7.22;5.15;;;16.10;99.90;;;;;;2128725;27;20030;-72
2022/08/29 00:12:50;;;;;;;9.27;5.55;;;16.00;99.90;;;;;;2128003;27;20161;-73
2022/08/29 00:13:54;;;;;;;10.88;5.95;;;16.10;99.90;;;;;;2114667;28;20628;-72
2022/08/29 00:14:55;;;;;;;10.25;5.50;;;16.10;99.90;;;;;;2116864;28;20031;-74
2022/08/29 00:15:57;;;;;;;10.75;5.80;;;16.10;99.90;;;;;;2125080;27;20038;-73
2022/08/29 00:17:01;;;;;;;9.35;6.03;;;16.10;99.90;;;;;;2124289;27;20423;-73
2022/08/29 00:18:03;;;;;;;8.43;5.50;;;16.10;99.90;;;;;;2115747;27;20058;-74
2022/08/29 00:19:07;;;;;;;7.65;5.18;;;16.10;99.90;;;;;;2124280;27;20743;-73
2022/08/29 00:20:11;;;;;;;8.50;5.20;;;16.00;99.90;;;;;;2123389;27;20031;-73
2022/08/29 00:21:12;;;;;;;13.18;5.85;;;16.00;99.90;;;;;;2123733;27;20023;-73
2022/08/29 00:22:13;;;;;;;7.60;5.68;;;16.00;99.90;;;;;;2115117;27;20042;-72
2022/08/29 00:23:14;;;;;;;7.47;5.13;;;16.00;99.90;;;;;;2123818;27;20065;-73
2022/08/29 00:24:15;;;;;;;9.88;5.53;;;16.00;99.90;;;;;;2123604;27;20025;-73
2022/08/29 00:25:16;;;;;;;7.35;4.78;;;16.00;99.90;;;;;;2106937;28;20088;-74
2022/08/29 00:26:20;;;;;;;7.60;5.00;;;16.00;99.90;;;;;;2116624;27;20012;-75
2022/08/29 00:27:21;;;;;;;9.52;5.15;;;16.00;99.90;;;;;;2124768;27;20075;-74
2022/08/29 00:28:23;;;;;;;9.80;5.15;;;16.00;99.90;;;;;;2124498;27;20019;-74
2022/08/29 00:29:30;;;;;;;7.45;4.57;;;16.00;99.90;;;;;;2124522;27;20072;-74
2022/08/29 00:30:33;;;;;;;7.80;4.90;;;16.00;99.90;;;;;;2124778;27;20545;-73
2022/08/29 00:31:33;;;;;;;7.45;4.78;;;16.00;99.90;;;;;;2124617;27;20377;-73
2022/08/29 00:32:36;;;;;;;7.32;4.40;;;16.00;99.90;;;;;;2123602;27;20097;-74
2022/08/29 00:33:37;;;;;;;8.13;4.65;;;16.00;99.90;;;;;;2123868;27;20037;-74
2022/08/29 00:34:37;;;;;;;9.20;4.72;;;16.00;99.90;;;;;;2123900;27;20088;-74
2022/08/29 00:35:41;;;;;;;6.65;4.50;;;16.00;99.90;;;;;;2123470;27;20535;-74
2022/08/29 00:36:42;;;;;;;8.90;4.72;;;16.00;99.90;;;;;;2123393;27;20114;-74
2022/08/29 00:37:43;;;;;;;8.40;4.95;;;16.00;99.90;;;;;;2123985;27;20031;-74
2022/08/29 00:38:44;;;;;;;9.90;5.10;;;16.00;99.90;;;;;;2124314;27;20389;-74
2022/08/29 00:39:45;;;;;;;8.35;4.80;;;16.00;99.90;;;;;;2114673;28;20039;-74
2022/08/29 00:40:50;;;;;;;8.00;4.80;;;16.00;99.90;;;;;;2106422;28;20031;-75
2022/08/29 00:41:51;;;;;;;10.07;4.85;;;16.00;99.90;;;;;;2115272;27;20425;-73
2022/08/29 00:42:55;;;;;;;8.73;4.80;;;15.90;99.90;;;;;;2106491;28;20115;-75
2022/08/29 00:43:56;;;;;;;8.15;4.47;;;15.90;99.90;;;;;;2098217;28;20234;-74
2022/08/29 00:44:57;;;;;;;8.00;4.85;;;15.90;99.90;;;;;;2114815;28;20027;-75
2022/08/29 00:46:30;;;;;;;7.35;4.38;;;15.90;99.90;;;;;;2123799;27;20031;-74
2022/08/29 00:47:35;;;;;;;6.70;4.43;;;15.90;99.90;;;;;;2122633;27;20661;-74
2022/08/29 00:48:38;;;;;;;7.10;4.60;;;15.90;99.90;;;;;;2114874;27;20520;-73
2022/08/29 00:49:47;;;;;;;6.55;4.68;;;15.90;99.90;;;;;;2123154;27;20038;-74
2022/08/29 00:51:13;;;;;;;6.28;4.63;;;15.90;99.90;;;;;;2123917;27;20052;-72
2022/08/29 00:52:28;;;;;;;7.28;4.07;;;15.90;99.90;;;;;;2123529;27;20063;-74
2022/08/29 00:53:35;;;;;;;9.15;4.50;;;15.80;99.90;;;;;;2122802;27;20035;-73
2022/08/29 00:54:37;;;;;;;7.82;4.35;;;15.80;99.90;;;;;;2121993;27;20490;-74
2022/08/29 00:55:40;;;;;;;8.95;4.22;;;15.80;99.90;;;;;;2122564;27;20031;-74
2022/08/29 00:56:42;;;;;;;7.03;4.25;;;15.80;99.90;;;;;;2122307;27;20515;-75
2022/08/29 00:57:46;;;;;;;10.43;4.60;;;15.80;99.90;;;;;;2121786;27;20027;-73
2022/08/29 00:59:11;;;;;;;6.78;4.20;;;15.80;99.90;;;;;;2122812;27;20059;-74
2022/08/29 01:00:15;;;;;;;7.38;4.30;;;15.80;99.90;;;;;;2122468;27;20038;-74
2022/08/29 01:01:16;;;;;;;7.43;4.70;;;15.80;99.90;;;;;;2121811;27;20561;-72
2022/08/29 01:02:17;;;;;;;7.63;4.10;;;15.80;99.90;;;;;;2122111;27;20424;-74
2022/08/29 01:03:18;;;;;;;6.82;4.10;;;15.80;99.90;;;;;;2122756;27;20354;-74
2022/08/29 01:04:20;;;;;;;8.05;4.18;;;15.80;99.90;;;;;;2122634;27;20019;-74
2022/08/29 01:05:21;;;;;;;6.28;4.18;;;15.70;99.90;;;;;;2122480;27;20019;-74
2022/08/29 01:06:24;;;;;;;8.95;4.10;;;15.80;99.90;;;;;;2122669;27;20051;-73
2022/08/29 01:07:25;;;;;;;8.02;4.25;;;15.70;99.90;;;;;;2122679;27;20118;-72
2022/08/29 01:08:26;;;;;;;8.35;4.57;;;15.80;99.90;;;;;;2122688;27;20023;-73
2022/08/29 01:09:27;;;;;;;5.78;3.70;;;15.80;99.90;;;;;;2122040;27;20031;-73
2022/08/29 01:13:08;;;;;;;7.22;4.10;;;15.70;99.90;;;;;;2122694;27;20034;-73
2022/08/29 01:14:09;;;;;;;7.15;4.00;;;15.70;99.90;;;;;;2122663;27;20031;-74
2022/08/29 01:15:12;;;;;;;8.20;4.25;;;15.70;99.90;;;;;;2122811;27;20062;-74
2022/08/29 01:16:14;;;;;;;7.07;4.15;;;15.80;99.90;;;;;;2122769;27;20111;-74
2022/08/29 01:17:19;;;;;;;8.75;4.18;;;15.70;99.90;;;;;;2121935;27;20019;-73
2022/08/29 01:18:21;;;;;;;7.80;4.20;;;15.80;99.90;;;;;;2122035;27;20109;-73
2022/08/29 01:19:45;;;;;;;7.60;4.03;;;15.80;99.90;;;;;;2122738;27;20031;-73
2022/08/29 01:20:49;;;;;;;7.15;4.40;;;15.70;99.90;;;;;;2122836;27;20031;-72
2022/08/29 01:22:01;;;;;;;8.05;4.38;;;15.70;99.90;;;;;;2122788;27;20027;-72
2022/08/29 01:23:28;;;;;;;6.78;4.10;;;15.70;99.90;;;;;;2122892;27;20046;-73
2022/08/29 01:24:55;;;;;;;7.90;4.50;;;15.70;99.90;;;;;;2122251;27;20022;-72
2022/08/29 01:25:57;;;;;;;5.88;3.92;;;15.70;99.90;;;;;;2118533;27;20043;-74
2022/08/29 01:26:58;;;;;;;8.27;4.43;;;15.70;99.90;;;;;;2121378;27;20038;-73
2022/08/29 01:28:05;;;;;;;8.38;4.13;;;15.60;99.90;;;;;;2122193;27;20038;-74
2022/08/29 01:29:05;;;;;;;9.30;4.55;;;15.60;99.90;;;;;;2121892;27;20081;-73
2022/08/29 01:30:07;;;;;;;8.90;4.60;;;15.60;99.90;;;;;;2122042;27;20206;-73
2022/08/29 01:31:23;;;;;;;5.68;3.95;;;15.60;99.90;;;;;;2122186;27;20165;-72
2022/08/29 01:32:24;;;;;;;7.60;4.22;;;15.60;99.90;;;;;;2121972;27;20121;-73
2022/08/29 01:33:36;;;;;;;7.88;4.32;;;15.60;99.90;;;;;;2121909;27;20039;-74
2022/08/29 01:34:37;;;;;;;8.13;4.30;;;15.60;99.90;;;;;;2121850;27;20098;-74
2022/08/29 01:35:38;;;;;;;7.15;4.32;;;15.60;99.90;;;;;;2121909;27;20102;-73
2022/08/29 01:36:46;;;;;;;10.13;4.70;;;15.60;99.90;;;;;;2122530;27;20035;-73
2022/08/29 01:37:46;;;;;;;8.40;4.18;;;15.60;99.90;;;;;;2122002;27;20031;-74
2022/08/29 01:38:48;;;;;;;7.88;4.30;;;15.60;99.90;;;;;;2122229;27;20035;-74
2022/08/29 01:39:49;;;;;;;6.57;4.28;;;15.60;99.90;;;;;;2122517;27;20550;-73
2022/08/29 01:40:49;;;;;;;7.13;4.47;;;15.60;99.90;;;;;;2122350;27;20184;-73
2022/08/29 01:41:51;;;;;;;8.07;4.50;;;15.60;99.90;;;;;;2122277;27;20058;-72
2022/08/29 01:42:53;;;;;;;7.68;4.20;;;15.60;99.90;;;;;;2122428;27;20038;-74
2022/08/29 01:43:55;;;;;;;8.93;4.60;;;15.60;99.90;;;;;;2122199;27;20079;-73
2022/08/29 01:44:59;;;;;;;7.45;4.50;;;15.60;99.90;;;;;;2122452;27;20785;-73
2022/08/29 01:45:59;;;;;;;8.68;4.75;;;15.60;99.90;;;;;;2122003;27;20052;-73
2022/08/29 01:47:00;;;;;;;7.78;5.00;;;15.60;99.90;;;;;;2122047;27;20100;-73
2022/08/29 01:48:01;;;;;;;7.72;4.72;;;15.50;99.90;;;;;;2121105;27;20064;-73
2022/08/29 01:49:06;;;;;;;8.45;4.70;;;15.50;99.90;;;;;;2112875;28;20057;-73
2022/08/29 01:50:14;;;;;;;9.05;4.57;;;15.50;99.90;;;;;;2113703;27;20031;-74
2022/08/29 01:51:15;;;;;;;9.40;4.72;;;15.50;99.90;;;;;;2121595;27;20042;-74
2022/08/29 01:52:16;;;;;;;8.70;4.63;;;15.50;99.90;;;;;;2121820;27;20040;-75
2022/08/29 01:53:17;;;;;;;7.30;4.57;;;15.50;99.90;;;;;;2121701;27;20484;-73
2022/08/29 01:54:18;;;;;;;8.63;4.65;;;15.50;99.90;;;;;;2121612;27;20038;-74
2022/08/29 01:55:19;;;;;;;7.88;4.60;;;15.50;99.90;;;;;;2121696;27;20085;-74
2022/08/29 01:56:27;;;;;;;7.90;4.57;;;15.50;99.90;;;;;;2122400;27;20416;-73
2022/08/29 01:57:28;;;;;;;10.05;4.70;;;15.40;99.90;;;;;;2121714;27;20468;-74
2022/08/29 01:58:28;;;;;;;8.18;4.88;;;15.40;99.90;;;;;;2121927;27;20030;-73
2022/08/29 01:59:30;;;;;;;7.78;4.53;;;15.40;99.90;;;;;;2122268;27;20121;-73
2022/08/29 02:00:31;;;;;;;9.95;4.70;;;15.40;99.90;;;;;;2122178;27;20572;-73
2022/08/29 02:01:35;;;;;;;9.18;5.00;;;15.40;99.90;;;;;;2122043;27;20031;-73
2022/08/29 02:02:37;;;;;;;8.68;5.07;;;15.40;99.90;;;;;;2122460;27;20035;-73
2022/08/29 02:03:37;;;;;;;9.73;5.18;;;15.40;99.90;;;;;;2122217;27;20076;-73
2022/08/29 02:04:39;;;;;;;12.48;5.28;;;15.40;99.90;;;;;;2122605;27;20535;-73
2022/08/29 02:05:40;;;;;;;8.32;4.95;;;15.40;99.90;;;;;;2122359;27;20130;-73
2022/08/29 02:06:41;;;;;;;9.23;5.07;;;15.40;99.90;;;;;;2122298;27;20477;-73
2022/08/29 02:07:42;;;;;;;10.05;5.00;;;15.40;99.90;;;;;;2121976;27;20038;-73
2022/08/29 02:08:44;;;;;;;10.88;4.60;;;15.40;99.90;;;;;;2122354;27;20097;-73
2022/08/29 02:09:46;;;;;;;9.98;4.95;;;15.40;99.90;;;;;;2122089;27;20031;-73
2022/08/29 02:10:47;;;;;;;8.23;4.93;;;15.40;99.90;;;;;;2122069;27;20556;-73
2022/08/29 02:11:48;;;;;;;7.93;4.82;;;15.40;99.90;;;;;;2121206;27;20031;-73
2022/08/29 02:12:49;;;;;;;8.15;5.18;;;15.40;99.90;;;;;;2121543;27;20446;-72
2022/08/29 02:13:54;;;;;;;9.23;4.85;;;15.40;99.90;;;;;;2121940;27;20120;-72
2022/08/29 02:14:55;;;;;;;8.73;5.35;;;15.40;99.90;;;;;;2122567;27;20023;-73
2022/08/29 02:15:55;;;;;;;7.63;5.00;;;15.30;99.90;;;;;;2122390;27;20123;-73
2022/08/29 02:16:56;;;;;;;9.32;5.20;;;15.30;99.90;;;;;;2122279;27;20113;-73
2022/08/29 02:17:59;;;;;;;8.43;5.03;;;15.30;99.90;;;;;;2122237;27;20567;-73
2022/08/29 02:19:01;;;;;;;9.05;5.00;;;15.30;99.90;;;;;;2118334;27;20085;-73
2022/08/29 02:20:04;;;;;;;7.20;4.80;;;15.30;99.90;;;;;;2120381;27;20394;-73
2022/08/29 02:21:05;;;;;;;7.78;4.70;;;15.30;99.90;;;;;;2122002;27;20609;-73
2022/08/29 02:22:10;;;;;;;8.88;5.10;;;15.30;99.90;;;;;;2122105;27;20087;-73
2022/08/29 02:23:11;;;;;;;8.98;5.00;;;15.30;99.90;;;;;;2122220;27;20103;-72
2022/08/29 02:24:13;;;;;;;9.05;4.85;;;15.30;99.90;;;;;;2121698;27;20027;-72
2022/08/29 02:26:34;;;;;;;10.00;5.07;;;15.20;99.90;;;;;;2122160;27;20011;-72
2022/08/29 02:27:37;;;;;;;8.25;5.22;;;15.20;99.90;;;;;;2121939;27;20073;-73
2022/08/29 02:28:40;;;;;;;7.82;4.88;;;15.10;99.90;;;;;;2121879;27;20019;-73
2022/08/29 02:29:41;;;;;;;9.32;5.20;;;15.10;99.90;;;;;;2121790;27;20109;-72
2022/08/29 02:30:47;;;;;;;11.20;4.90;;;15.10;99.90;;;;;;2122027;27;20038;-74
2022/08/29 02:31:50;;;;;;;9.10;5.10;;;15.10;99.90;;;;;;2106171;28;20042;-74
2022/08/29 02:32:55;;;;;;;9.85;5.40;;;15.10;99.90;;;;;;2113847;27;20506;-73
2022/08/29 02:33:56;;;;;;;9.70;5.00;;;15.10;99.90;;;;;;2122352;27;20481;-73
2022/08/29 02:34:57;;;;;;;7.97;4.97;;;15.10;99.90;;;;;;2122175;27;20031;-73
2022/08/29 02:35:58;;;;;;;12.50;5.22;;;15.00;99.90;;;;;;2121780;27;20027;-72
2022/08/29 02:36:59;;;;;;;9.00;5.45;;;15.10;99.90;;;;;;2121310;27;20023;-72
2022/08/29 02:38:01;;;;;;;8.30;5.07;;;15.00;99.90;;;;;;2112901;28;20036;-73
2022/08/29 02:39:05;;;;;;;7.63;4.80;;;15.10;99.90;;;;;;2121198;27;20031;-72
2022/08/29 02:40:07;;;;;;;12.23;5.20;;;15.00;99.90;;;;;;2121894;27;20154;-74
2022/08/29 02:41:08;;;;;;;9.30;5.28;;;15.00;99.90;;;;;;2121443;27;20039;-73
2022/08/29 02:42:09;;;;;;;8.68;5.18;;;15.00;99.90;;;;;;2122274;27;20050;-73
2022/08/29 02:43:14;;;;;;;8.48;5.30;;;15.00;99.90;;;;;;2122492;27;20724;-74
2022/08/29 02:44:14;;;;;;;11.07;5.10;;;15.00;99.90;;;;;;2122830;27;20027;-73
2022/08/29 02:45:15;;;;;;;9.95;5.60;;;14.90;99.90;;;;;;2122800;27;20019;-73
2022/08/29 02:46:17;;;;;;;9.40;5.53;;;14.90;99.90;;;;;;2122359;27;20031;-73
2022/08/29 02:47:18;;;;;;;7.20;5.00;;;14.90;99.90;;;;;;2121444;27;20105;-73
2022/08/29 02:48:19;;;;;;;8.75;5.65;;;14.90;99.90;;;;;;2122748;27;20019;-73
2022/08/29 02:49:20;;;;;;;8.45;5.38;;;14.90;99.90;;;;;;2122669;27;20404;-74
2022/08/29 02:50:21;;;;;;;9.15;5.43;;;14.90;99.90;;;;;;2127435;27;20022;-73
2022/08/29 02:51:26;;;;;;;8.75;5.40;;;14.90;99.90;;;;;;2132129;27;20015;-73
2022/08/29 02:52:27;;;;;;;8.73;4.95;;;14.90;99.90;;;;;;2130184;27;20043;-73
2022/08/29 02:53:31;;;;;;;10.25;5.40;;;14.80;99.90;;;;;;2130149;27;20042;-73
2022/08/29 02:54:31;;;;;;;8.70;5.38;;;14.80;99.90;;;;;;2131052;27;20019;-73
2022/08/29 02:55:32;;;;;;;10.82;5.15;;;14.80;99.90;;;;;;2129747;28;20091;-73
2022/08/29 02:56:33;;;;;;;8.35;5.13;;;14.80;99.90;;;;;;2120506;28;20421;-72
2022/08/29 02:57:34;;;;;;;10.43;5.03;;;14.80;99.90;;;;;;2117562;28;20052;-73
2022/08/29 02:58:37;;;;;;;8.77;5.43;;;14.80;99.90;;;;;;2124274;27;20034;-73
2022/08/29 02:59:38;;;;;;;8.85;5.45;;;14.80;99.90;;;;;;2123485;27;20111;-73
2022/08/29 03:00:39;;;;;;;8.13;5.25;;;14.80;99.90;;;;;;2123829;27;20570;-73
2022/08/29 03:01:43;;;;;;;9.38;5.25;;;14.80;99.90;;;;;;2122715;27;20026;-72
2022/08/29 03:02:46;;;;;;;7.75;5.25;;;14.80;99.90;;;;;;2114938;28;20034;-73
2022/08/29 03:03:49;;;;;;;8.23;5.22;;;14.80;99.90;;;;;;2122469;28;20039;-72
2022/08/29 03:04:50;;;;;;;9.25;5.15;;;14.80;99.90;;;;;;2123041;27;20047;-74
2022/08/29 03:05:50;;;;;;;9.45;5.53;;;14.80;99.90;;;;;;2122326;27;20461;-73
2022/08/29 03:06:52;;;;;;;8.00;5.20;;;14.80;99.90;;;;;;2123616;27;20019;-73
2022/08/29 03:07:55;;;;;;;9.10;5.30;;;14.80;99.90;;;;;;2122165;27;20035;-73
2022/08/29 03:08:55;;;;;;;10.95;5.65;;;14.80;99.90;;;;;;2122398;27;20092;-73
2022/08/29 03:09:56;;;;;;;10.45;5.80;;;14.80;99.90;;;;;;2122412;28;20019;-73
2022/08/29 03:10:57;;;;;;;8.98;5.30;;;14.80;99.90;;;;;;2113715;28;20103;-73
2022/08/29 03:11:58;;;;;;;9.30;5.32;;;14.80;99.90;;;;;;2114166;28;20409;-73
2022/08/29 03:12:59;;;;;;;9.65;5.40;;;14.80;99.90;;;;;;2122017;27;20034;-74
2022/08/29 03:14:00;;;;;;;9.15;5.10;;;14.70;99.90;;;;;;2122838;27;20465;-73
2022/08/29 03:15:01;;;;;;;9.15;5.60;;;14.70;99.90;;;;;;2122218;27;20370;-74
2022/08/29 03:16:03;;;;;;;10.07;5.53;;;14.70;99.90;;;;;;2122538;27;20106;-73
2022/08/29 03:17:04;;;;;;;8.80;5.50;;;14.70;99.90;;;;;;2122710;27;20034;-73
2022/08/29 03:18:05;;;;;;;8.95;5.15;;;14.70;99.90;;;;;;2121417;27;20057;-73
2022/08/29 03:19:05;;;;;;;9.98;5.63;;;14.70;99.90;;;;;;2121649;27;20033;-73
2022/08/29 03:20:08;;;;;;;11.23;5.47;;;14.70;99.90;;;;;;2121761;27;20034;-73
2022/08/29 03:21:19;;;;;;;7.93;5.72;;;14.70;99.90;;;;;;2121760;27;20031;-73
2022/08/29 03:22:19;;;;;;;10.77;5.82;;;14.60;99.90;;;;;;2122944;27;20023;-73
2022/08/29 03:23:23;;;;;;;8.85;5.55;;;14.60;99.90;;;;;;2122872;27;20637;-73
2022/08/29 03:24:24;;;;;;;8.43;5.53;;;14.60;99.90;;;;;;2122546;27;20102;-73
2022/08/29 03:25:24;;;;;;;8.82;5.50;;;14.60;99.90;;;;;;2121300;28;20027;-74
2022/08/29 03:26:25;;;;;;;12.98;5.70;;;14.60;99.90;;;;;;2122196;27;20465;-72
2022/08/29 03:27:26;;;;;;;9.02;5.40;;;14.60;99.90;;;;;;2122733;27;20182;-73
2022/08/29 03:28:27;;;;;;;10.10;5.63;;;14.60;99.90;;;;;;2122162;27;20061;-72
2022/08/29 03:29:28;;;;;;;8.18;5.40;;;14.50;99.90;;;;;;2112759;28;20032;-73
2022/08/29 03:30:29;;;;;;;10.55;6.13;;;14.50;99.90;;;;;;2122078;28;20023;-73
2022/08/29 03:31:31;;;;;;;9.30;5.78;;;14.50;99.90;;;;;;2122063;27;20031;-72
2022/08/29 03:32:42;;;;;;;8.93;5.63;;;14.50;99.90;;;;;;2122469;27;20031;-71
2022/08/29 03:33:42;;;;;;;9.85;6.07;;;14.50;99.90;;;;;;2123216;27;20023;-72
2022/08/29 03:34:43;;;;;;;9.93;5.75;;;14.50;99.90;;;;;;2122139;27;20392;-71
2022/08/29 03:35:44;;;;;;;10.52;5.82;;;14.50;99.90;;;;;;2121413;28;20020;-72
2022/08/29 03:36:44;;;;;;;11.68;5.68;;;14.50;99.90;;;;;;2121382;27;20060;-72
2022/08/29 03:37:45;;;;;;;11.43;5.53;;;14.40;99.90;;;;;;2113134;28;20037;-72
2022/08/29 03:38:46;;;;;;;8.98;5.72;;;14.40;99.90;;;;;;2121435;28;20031;-72
2022/08/29 03:39:47;;;;;;;10.55;5.68;;;14.40;99.90;;;;;;2122999;27;20063;-72
2022/08/29 03:40:47;;;;;;;12.50;6.07;;;14.40;99.90;;;;;;2122763;27;20901;-73
2022/08/29 03:41:48;;;;;;;8.93;5.50;;;14.40;99.90;;;;;;2122700;27;20505;-72
2022/08/29 03:42:49;;;;;;;9.02;5.50;;;14.40;99.90;;;;;;2113227;28;20016;-72
2022/08/29 03:43:51;;;;;;;7.88;5.43;;;14.40;99.90;;;;;;2121014;27;20031;-72
2022/08/29 03:44:52;;;;;;;8.07;5.22;;;14.40;99.90;;;;;;2121319;27;20072;-72
2022/08/29 03:45:53;;;;;;;9.23;5.50;;;14.40;99.90;;;;;;2121380;28;20215;-72
2022/08/29 03:46:55;;;;;;;8.68;5.72;;;14.40;99.90;;;;;;2121604;28;20024;-72
2022/08/29 03:47:56;;;;;;;9.20;5.45;;;14.40;99.90;;;;;;2118770;27;20008;-72
2022/08/29 03:48:57;;;;;;;9.30;5.70;;;14.40;99.90;;;;;;2120495;28;20477;-72
2022/08/29 03:49:57;;;;;;;8.90;5.13;;;14.40;99.90;;;;;;2120498;27;20027;-72
2022/08/29 03:50:58;;;;;;;10.43;5.50;;;14.40;99.90;;;;;;2122625;27;20102;-72
2022/08/29 03:51:59;;;;;;;9.88;5.47;;;14.40;99.90;;;;;;2122963;27;20027;-71
2022/08/29 03:53:00;;;;;;;8.18;5.47;;;14.40;99.90;;;;;;2122989;27;20507;-72
2022/08/29 03:54:00;;;;;;;8.80;5.38;;;14.40;99.90;;;;;;2122990;27;20068;-72
2022/08/29 03:55:02;;;;;;;10.10;5.40;;;14.40;99.90;;;;;;2123001;27;20114;-71
2022/08/29 03:56:04;;;;;;;7.93;5.40;;;14.40;99.90;;;;;;2122925;27;20729;-72
2022/08/29 03:57:06;;;;;;;8.48;5.38;;;14.40;99.90;;;;;;2122122;27;20636;-72
2022/08/29 03:58:07;;;;;;;9.13;5.35;;;14.40;99.90;;;;;;2122219;27;20031;-71
2022/08/29 03:59:08;;;;;;;8.77;5.60;;;14.40;99.90;;;;;;2122988;27;20023;-71
2022/08/29 04:00:12;;;;;;;7.13;5.15;;;14.40;99.90;;;;;;2122386;27;20019;-71
2022/08/29 04:01:15;;;;;;;9.38;5.50;;;14.40;99.90;;;;;;2114143;27;20080;-71
2022/08/29 04:02:17;;;;;;;11.07;5.53;;;14.40;99.90;;;;;;2122204;27;20027;-71
2022/08/29 04:03:18;;;;;;;9.65;5.60;;;14.40;99.90;;;;;;2122838;27;20386;-72
2022/08/29 04:05:39;;;;;;;8.93;5.60;;;14.40;99.90;;;;;;2122917;27;20027;-72
2022/08/29 04:06:40;;;;;;;9.82;5.55;;;14.40;99.90;;;;;;2122355;27;20081;-73
2022/08/29 04:07:45;;;;;;;11.95;5.57;;;14.40;99.90;;;;;;2121958;27;20050;-71
2022/08/29 04:08:47;;;;;;;10.02;5.47;;;14.40;99.90;;;;;;2122161;27;20019;-71
2022/08/29 04:09:47;;;;;;;11.15;5.78;;;14.30;99.90;;;;;;2122263;27;20048;-72
2022/08/29 04:10:48;;;;;;;7.53;5.60;;;14.30;99.90;;;;;;2122829;27;20027;-72
2022/08/29 04:11:49;;;;;;;9.65;5.45;;;14.30;99.90;;;;;;2122622;27;20027;-72
2022/08/29 04:12:50;;;;;;;9.65;5.57;;;14.30;99.90;;;;;;2122802;27;20054;-72
2022/08/29 04:13:52;;;;;;;8.10;5.60;;;14.30;99.90;;;;;;2122745;27;20059;-72
2022/08/29 04:14:53;;;;;;;8.43;5.60;;;14.30;99.90;;;;;;2122679;27;20068;-73
2022/08/29 04:15:53;;;;;;;8.95;5.60;;;14.30;99.90;;;;;;2122718;27;20080;-73
2022/08/29 04:16:54;;;;;;;10.10;5.55;;;14.30;99.90;;;;;;2122794;27;20489;-72
2022/08/29 04:17:58;;;;;;;9.18;5.45;;;14.20;99.90;;;;;;2122550;27;20093;-73
2022/08/29 04:18:59;;;;;;;10.75;5.22;;;14.20;99.90;;;;;;2122810;27;20080;-73
2022/08/29 04:20:00;;;;;;;8.35;5.38;;;14.20;99.90;;;;;;2122650;27;20027;-72
2022/08/29 04:21:01;;;;;;;8.40;5.70;;;14.20;99.90;;;;;;2113463;28;20034;-72
2022/08/29 04:22:06;;;;;;;9.27;5.60;;;14.20;99.90;;;;;;2113655;28;20035;-74
2022/08/29 04:23:07;;;;;;;9.48;5.75;;;14.20;99.90;;;;;;2122791;27;20041;-72
2022/08/29 04:24:08;;;;;;;9.27;5.47;;;14.20;99.90;;;;;;2115263;28;20681;-71
2022/08/29 04:25:12;;;;;;;9.25;5.72;;;14.20;99.90;;;;;;2123367;27;20034;-72
2022/08/29 04:26:16;;;;;;;8.40;5.70;;;14.20;99.90;;;;;;2123510;27;20041;-73
2022/08/29 04:27:16;;;;;;;9.45;5.60;;;14.30;99.90;;;;;;2122831;27;20079;-72
2022/08/29 04:28:17;;;;;;;10.40;6.18;;;14.20;99.90;;;;;;2122848;27;20674;-72
2022/08/29 04:29:18;;;;;;;9.50;5.63;;;14.20;99.90;;;;;;2113308;28;20133;-73
2022/08/29 04:30:22;;;;;;;10.60;6.00;;;14.20;99.90;;;;;;2113533;28;20019;-73
2022/08/29 04:31:23;;;;;;;9.18;5.60;;;14.20;99.90;;;;;;2122652;27;20012;-72
2022/08/29 04:32:24;;;;;;;8.82;5.45;;;14.30;99.90;;;;;;2122161;27;20524;-72
2022/08/29 04:33:25;;;;;;;10.60;6.20;;;14.20;99.90;;;;;;2122270;27;20053;-72
2022/08/29 04:34:26;;;;;;;9.55;5.95;;;14.30;99.90;;;;;;2122699;27;20030;-72
2022/08/29 04:35:27;;;;;;;10.93;6.28;;;14.20;99.90;;;;;;2122908;27;20039;-72
2022/08/29 04:36:28;;;;;;;11.82;6.43;;;14.30;99.90;;;;;;2122632;27;20030;-72
2022/08/29 04:37:29;;;;;;;12.00;6.60;;;14.30;99.90;;;;;;2121675;27;20035;-72
2022/08/29 04:38:30;;;;;;;12.57;6.40;;;14.40;99.90;;;;;;2113539;27;20038;-73
2022/08/29 04:39:30;;;;;;;23.13;7.88;;;14.40;99.90;;;;;;2113323;28;20104;-73
2022/08/29 04:40:32;;;;;;;42.53;8.50;;;14.40;99.90;;;;;;2122116;27;20019;-73
2022/08/29 04:41:34;;;;;;;22.20;7.47;;;14.50;99.90;;;;;;2122392;27;20023;-73
2022/08/29 04:42:37;;;;;;;25.92;7.53;;;14.50;99.90;;;;;;2122791;27;20504;-71
2022/08/29 04:43:38;;;;;;;17.98;6.95;;;14.60;99.90;;;;;;2122641;27;20084;-73
2022/08/29 04:44:38;;;;;;;15.77;7.05;;;14.60;99.90;;;;;;2122958;27;20062;-72
2022/08/29 04:45:40;;;;;;;21.88;7.65;;;14.70;99.90;;;;;;2122616;27;20031;-73
2022/08/29 04:46:40;;;;;;;17.90;6.85;;;14.80;99.90;;;;;;2122066;27;20463;-72
2022/08/29 04:47:41;;;;;;;12.15;6.65;;;14.80;99.90;;;;;;2121605;27;20019;-72
2022/08/29 04:48:42;;;;;;;13.68;6.70;;;14.80;99.90;;;;;;2121975;27;20027;-72
2022/08/29 04:49:43;;;;;;;11.40;6.22;;;14.90;99.90;;;;;;2121991;27;20039;-72
2022/08/29 04:50:44;;;;;;;8.95;6.15;;;14.80;99.90;;;;;;2122950;27;20492;-73
2022/08/29 04:51:44;;;;;;;8.27;5.70;;;14.80;99.90;;;;;;2122134;27;20076;-72
2022/08/29 04:52:45;;;;;;;9.18;5.47;;;14.80;99.90;;;;;;2122486;27;20073;-73
2022/08/29 04:53:47;;;;;;;8.82;5.80;;;14.80;99.90;;;;;;2122556;27;20027;-73
2022/08/29 04:54:48;;;;;;;9.32;5.32;;;14.80;99.90;;;;;;2123142;27;20023;-73
2022/08/29 04:55:56;;;;;;;9.32;5.55;;;14.80;99.90;;;;;;2122918;27;20031;-73
2022/08/29 04:57:02;;;;;;;10.43;5.65;;;14.80;99.90;;;;;;2122838;27;20038;-74
2022/08/29 04:58:02;;;;;;;12.38;6.03;;;14.80;99.90;;;;;;2124044;27;20111;-73
2022/08/29 04:59:03;;;;;;;9.93;5.53;;;14.80;99.90;;;;;;2122541;27;20499;-72
2022/08/29 05:00:11;;;;;;;9.23;5.72;;;14.80;99.90;;;;;;2122803;27;20456;-72
2022/08/29 05:01:15;;;;;;;10.00;5.72;;;14.80;99.90;;;;;;2122635;27;20384;-71
2022/08/29 05:02:15;;;;;;;11.45;5.32;;;14.80;99.90;;;;;;2122977;27;20027;-71
2022/08/29 05:03:16;;;;;;;11.40;5.80;;;14.90;99.90;;;;;;2122544;27;20523;-72
2022/08/29 05:04:17;;;;;;;11.57;5.72;;;14.90;99.90;;;;;;2123594;27;20650;-72
2022/08/29 05:05:18;;;;;;;11.63;5.38;;;14.90;99.90;;;;;;2122735;27;20042;-73
2022/08/29 05:06:20;;;;;;;10.05;5.63;;;15.00;99.90;;;;;;2113670;27;20016;-72
2022/08/29 05:07:22;;;;;;;10.77;5.30;;;15.00;99.90;;;;;;2113904;27;20038;-71
2022/08/29 05:08:23;;;;;;;10.50;5.45;;;15.00;99.90;;;;;;2114115;27;20078;-72
2022/08/29 05:09:24;;;;;;;8.88;5.20;;;15.00;99.90;;;;;;2113888;28;20096;-73
2022/08/29 05:10:25;;;;;;;8.02;5.00;;;15.10;99.90;;;;;;2113590;28;20863;-71
2022/08/29 05:11:30;;;;;;;8.85;5.07;;;15.20;99.90;;;;;;2122864;27;20021;-72
2022/08/29 05:12:32;;;;;;;9.77;4.55;;;15.30;99.90;;;;;;2123293;27;20071;-71
2022/08/29 05:13:33;;;;;;;6.57;4.70;;;15.40;99.90;;;;;;2113472;28;20390;-72
2022/08/29 05:14:33;;;;;;;7.93;4.90;;;15.60;99.90;;;;;;2114186;27;20035;-75
2022/08/29 05:15:37;;;;;;;8.25;4.93;;;15.80;99.90;;;;;;2122685;27;20131;-74
2022/08/29 05:16:38;;;;;;;10.05;5.07;;;16.10;99.90;;;;;;2122945;27;20646;-72
2022/08/29 05:17:40;;;;;;;11.88;5.03;;;16.40;99.90;;;;;;2122525;27;20030;-74
2022/08/29 05:18:43;;;;;;;9.55;5.25;;;16.60;99.90;;;;;;2113796;28;20027;-74
2022/08/29 05:19:43;;;;;;;18.73;12.20;;;16.80;99.90;;;;;;2122534;27;20482;-73
2022/08/29 05:20:46;;;;;;;10.60;7.13;;;17.00;99.90;;;;;;2123422;27;20058;-73
2022/08/29 05:21:47;;;;;;;11.57;5.93;;;17.30;99.90;;;;;;2122048;27;20019;-71
2022/08/29 05:22:47;;;;;;;11.55;5.25;;;17.40;99.90;;;;;;2121844;27;20123;-72
2022/08/29 05:23:48;;;;;;;8.70;4.80;;;17.50;99.90;;;;;;2122289;27;20071;-73
2022/08/29 05:24:49;;;;;;;8.15;4.53;;;17.70;99.90;;;;;;2122539;27;20023;-74
2022/08/29 05:25:58;;;;;;;11.63;5.00;;;17.80;99.90;;;;;;2122050;27;20061;-74
2022/08/29 05:26:58;;;;;;;8.98;4.53;;;17.90;99.90;;;;;;2122225;27;20118;-74
2022/08/29 05:27:59;;;;;;;7.72;4.53;;;18.10;99.90;;;;;;2122738;27;20027;-74
2022/08/29 05:29:00;;;;;;;8.65;4.80;;;18.30;99.90;;;;;;2122065;27;20027;-74